createdAt,value
2023-01-20T00:04:50.643Z,0.80
2023-01-20T00:07:20.824Z,0.50
2023-01-20T00:09:47.775Z,0.50
2023-01-20T00:12:14.678Z,0.40
2023-01-20T00:14:46.581Z,0.40
2023-01-20T00:17:19.053Z,0.50
2023-01-20T00:19:46.422Z,0.60
2023-01-20T00:22:13.847Z,0.50
2023-01-20T00:24:42.511Z,0.50
2023-01-20T00:27:11.223Z,0.40
2023-01-20T00:29:40.589Z,0.40
2023-01-20T00:32:09.704Z,0.10
2023-01-20T00:34:38.289Z,0.20
2023-01-20T00:37:05.907Z,0.20
2023-01-20T00:39:33.351Z,0.10
2023-01-20T00:42:01.117Z,0.20
2023-01-20T00:44:28.484Z,0.10
2023-01-20T00:46:55.990Z,0.10
2023-01-20T00:49:25.410Z,0.10
2023-01-20T00:51:52.704Z,0.10
2023-01-20T00:54:19.943Z,0.10
2023-01-20T00:56:49.093Z,0.00
2023-01-20T00:59:17.965Z,-0.10
2023-01-20T01:01:46.405Z,-0.10
2023-01-20T01:04:19.202Z,-0.10
2023-01-20T01:06:46.145Z,-0.10
2023-01-20T01:09:13.912Z,-0.10
2023-01-20T01:11:40.872Z,-0.10
2023-01-20T01:14:10.229Z,0.00
2023-01-20T01:16:37.194Z,-0.10
2023-01-20T01:19:04.663Z,-0.40
2023-01-20T01:21:31.605Z,-0.20
2023-01-20T01:23:59.001Z,0.00
2023-01-20T01:26:26.931Z,-0.10
2023-01-20T01:28:54.792Z,-0.10
2023-01-20T01:31:24.441Z,-0.40
2023-01-20T01:33:51.880Z,-0.30
2023-01-20T01:36:20.832Z,-0.30
2023-01-20T01:38:57.285Z,-0.50
2023-01-20T01:41:25.879Z,-0.30
2023-01-20T01:44:08.167Z,-0.10
2023-01-20T01:46:37.393Z,-0.20
2023-01-20T01:49:20.759Z,0.00
2023-01-20T01:52:03.502Z,0.10
2023-01-20T01:54:36.206Z,0.10
2023-01-20T01:57:10.112Z,0.10
2023-01-20T01:59:42.168Z,0.10
2023-01-20T02:02:09.955Z,0.10
2023-01-20T02:04:39.066Z,0.10
2023-01-20T02:07:13.405Z,0.10
2023-01-20T02:09:42.133Z,0.10
2023-01-20T02:12:15.210Z,0.20
2023-01-20T02:14:51.168Z,0.20
2023-01-20T02:17:29.886Z,0.30
2023-01-20T02:20:20.955Z,0.30
2023-01-20T02:23:06.704Z,0.30
2023-01-20T02:26:11.481Z,0.30
2023-01-20T02:29:06.523Z,0.40
2023-01-20T02:32:12.209Z,0.40
2023-01-20T02:34:54.954Z,0.40
2023-01-20T02:37:56.539Z,0.40
2023-01-20T02:40:23.873Z,0.40
2023-01-20T02:43:02.556Z,0.50
2023-01-20T02:45:39.847Z,0.50
2023-01-20T02:48:29.620Z,0.60
2023-01-20T02:51:00.939Z,0.60
2023-01-20T02:53:40.827Z,0.60
2023-01-20T02:56:10.201Z,0.60
2023-01-20T02:58:50.444Z,0.60
2023-01-20T03:01:24.768Z,0.60
2023-01-20T03:04:04.628Z,0.60
2023-01-20T03:06:36.171Z,0.60
2023-01-20T03:09:10.887Z,0.70
2023-01-20T03:11:44.185Z,0.70
2023-01-20T03:14:13.647Z,0.70
2023-01-20T03:16:44.545Z,0.60
2023-01-20T03:19:12.047Z,0.70
2023-01-20T03:21:39.145Z,0.60
2023-01-20T03:24:09.065Z,0.60
2023-01-20T03:26:35.983Z,0.50
2023-01-20T03:29:08.664Z,0.50
2023-01-20T03:31:44.827Z,0.50
2023-01-20T03:34:16.028Z,0.40
2023-01-20T03:36:44.760Z,0.40
2023-01-20T03:39:13.248Z,0.40
2023-01-20T03:42:03.617Z,0.30
2023-01-20T03:45:08.773Z,0.20
2023-01-20T03:47:51.105Z,0.10
2023-01-20T03:50:32.446Z,0.10
2023-01-20T03:53:16.480Z,0.00
2023-01-20T03:55:46.300Z,-0.10
2023-01-20T03:58:20.829Z,-0.20
2023-01-20T04:00:51.207Z,-0.20
2023-01-20T04:03:30.022Z,-0.10
2023-01-20T04:06:01.481Z,-0.10
2023-01-20T04:08:44.897Z,-0.10
2023-01-20T04:11:11.989Z,-0.20
2023-01-20T04:13:40.173Z,-0.20
2023-01-20T04:16:15.405Z,-0.30
2023-01-20T04:18:45.558Z,-0.30
2023-01-20T04:21:19.989Z,-0.40
2023-01-20T04:23:56.751Z,-0.40
2023-01-20T04:26:24.461Z,-0.50
2023-01-20T04:28:51.977Z,-0.50
2023-01-20T04:31:29.970Z,-0.60
2023-01-20T04:34:00.942Z,-0.70
2023-01-20T04:36:28.902Z,-0.70
2023-01-20T04:38:56.252Z,-0.70
2023-01-20T04:41:25.628Z,-0.80
2023-01-20T04:43:52.541Z,-0.80
2023-01-20T04:46:19.624Z,-0.80
2023-01-20T04:48:46.627Z,-0.90
2023-01-20T04:51:14.445Z,-0.90
2023-01-20T04:53:42.845Z,-0.90
2023-01-20T04:56:14.715Z,-1.00
2023-01-20T04:58:42.772Z,-1.00
2023-01-20T05:01:09.920Z,-1.10
2023-01-20T05:03:38.339Z,-1.10
2023-01-20T05:06:09.109Z,-1.00
2023-01-20T05:08:36.833Z,-0.90
2023-01-20T05:11:04.343Z,-0.80
2023-01-20T05:13:31.934Z,-0.50
2023-01-20T05:16:02.867Z,-0.30
2023-01-20T05:18:30.601Z,-0.20
2023-01-20T05:20:57.560Z,0.00
2023-01-20T05:23:25.994Z,0.10
2023-01-20T05:28:38.289Z,0.30
2023-01-20T05:31:07.608Z,0.40
2023-01-20T05:33:38.024Z,0.50
2023-01-20T05:36:09.376Z,0.50
2023-01-20T05:38:37.583Z,0.50
2023-01-20T05:41:17.323Z,0.60
2023-01-20T05:43:44.315Z,0.70
2023-01-20T05:46:11.860Z,0.80
2023-01-20T05:48:39.319Z,0.80
2023-01-20T05:56:38.348Z,1.00
2023-01-20T06:01:50.603Z,1.00
2023-01-20T06:04:20.249Z,1.00
2023-01-20T06:06:47.457Z,1.00
2023-01-20T06:09:18.924Z,0.90
2023-01-20T06:11:52.807Z,0.70
2023-01-20T06:14:20.499Z,0.40
2023-01-20T06:16:47.713Z,0.30
2023-01-20T06:19:15.784Z,0.10
2023-01-20T06:21:46.837Z,-0.20
2023-01-20T06:24:14.845Z,-0.40
2023-01-20T06:26:43.353Z,-0.40
2023-01-20T06:29:10.296Z,-0.70
2023-01-20T06:31:37.404Z,-0.70
2023-01-20T06:34:05.801Z,-0.80
2023-01-20T06:36:34.635Z,-0.70
2023-01-20T06:39:02.255Z,-0.80
2023-01-20T06:41:30.528Z,-0.90
2023-01-20T06:43:59.276Z,-1.10
2023-01-20T06:46:27.633Z,-1.00
2023-01-20T06:49:01.487Z,-0.90
2023-01-20T06:51:50.607Z,-0.90
2023-01-20T06:54:20.535Z,-0.90
2023-01-20T06:56:50.698Z,-0.90
2023-01-20T06:59:23.405Z,-0.90
2023-01-20T07:01:53.831Z,-1.00
2023-01-20T07:04:20.752Z,-1.20
2023-01-20T07:06:48.430Z,-1.10
2023-01-20T07:09:15.519Z,-1.00
2023-01-20T07:11:44.004Z,-0.90
2023-01-20T07:14:10.840Z,-0.80
2023-01-20T07:16:38.279Z,-0.80
2023-01-20T07:19:07.001Z,-0.70
2023-01-20T07:21:35.011Z,-0.60
2023-01-20T07:24:03.516Z,-0.50
2023-01-20T07:26:31.000Z,-0.60
2023-01-20T07:29:02.607Z,-0.70
2023-01-20T07:31:32.030Z,-0.80
2023-01-20T07:34:01.562Z,-0.60
2023-01-20T07:36:29.034Z,-0.50
2023-01-20T07:38:58.867Z,-0.30
2023-01-20T07:41:25.765Z,-0.20
2023-01-20T07:43:54.020Z,-0.10
2023-01-20T07:46:22.167Z,0.10
2023-01-20T07:48:50.184Z,0.20
2023-01-20T07:51:19.566Z,0.30
2023-01-20T07:53:49.492Z,0.40
2023-01-20T07:56:19.597Z,0.90
2023-01-20T07:58:50.922Z,1.70
2023-01-20T08:01:27.834Z,2.60
2023-01-20T08:03:57.286Z,3.50
2023-01-20T08:06:26.564Z,4.30
2023-01-20T08:08:54.509Z,4.50
2023-01-20T08:11:25.023Z,4.30
2023-01-20T08:13:56.816Z,3.80
2023-01-20T08:16:24.662Z,3.70
2023-01-20T08:18:54.284Z,3.50
2023-01-20T08:21:28.029Z,3.40
2023-01-20T08:24:07.239Z,3.10
2023-01-20T08:26:36.104Z,2.80
2023-01-20T08:29:08.035Z,2.80
2023-01-20T08:31:36.226Z,2.90
2023-01-20T08:34:04.392Z,2.90
2023-01-20T08:36:35.870Z,2.90
2023-01-20T08:39:09.923Z,2.80
2023-01-20T08:41:41.998Z,2.50
2023-01-20T08:44:11.569Z,2.40
2023-01-20T08:47:04.217Z,2.40
2023-01-20T08:49:31.488Z,2.60
2023-01-20T08:52:06.795Z,2.70
2023-01-20T08:57:19.294Z,2.80
2023-01-20T08:59:48.558Z,2.90
2023-01-20T09:02:20.828Z,3.00
2023-01-20T09:04:56.256Z,3.40
2023-01-20T09:07:24.674Z,3.70
2023-01-20T09:09:53.558Z,3.80
2023-01-20T09:12:25.535Z,3.80
2023-01-20T09:14:55.940Z,3.80
2023-01-20T09:17:26.870Z,3.80
2023-01-20T09:19:55.224Z,3.80
2023-01-20T09:22:22.666Z,4.00
2023-01-20T09:24:52.509Z,4.10
2023-01-20T09:27:20.216Z,4.20
2023-01-20T09:29:51.886Z,4.00
2023-01-20T09:32:20.451Z,4.20
2023-01-20T09:34:50.670Z,4.20
2023-01-20T09:37:37.440Z,4.30
2023-01-20T09:40:25.383Z,4.60
2023-01-20T09:43:17.032Z,4.60
2023-01-20T09:46:24.298Z,4.80
2023-01-20T09:49:22.749Z,4.90
2023-01-20T09:52:27.475Z,5.10
2023-01-20T09:55:28.229Z,4.70
2023-01-20T09:58:20.759Z,4.80
2023-01-20T10:01:02.981Z,5.20
2023-01-20T10:03:48.150Z,5.50
2023-01-20T10:06:20.674Z,5.40
2023-01-20T10:09:28.560Z,5.20
2023-01-20T10:12:24.467Z,5.30
2023-01-20T10:15:00.489Z,5.10
2023-01-20T10:17:45.622Z,5.00
2023-01-20T10:20:23.320Z,4.80
2023-01-20T10:23:21.641Z,4.50
2023-01-20T10:26:23.512Z,4.60
2023-01-20T10:29:03.319Z,4.40
2023-01-20T10:31:38.097Z,4.20
2023-01-20T10:34:20.565Z,4.00
2023-01-20T10:36:56.364Z,3.90
2023-01-20T10:39:50.253Z,4.00
2023-01-20T10:42:18.788Z,4.00
2023-01-20T10:44:51.664Z,4.10
2023-01-20T10:47:29.728Z,4.00
2023-01-20T10:50:23.301Z,4.20
2023-01-20T10:53:34.397Z,4.20
2023-01-20T10:56:53.864Z,4.20
2023-01-20T10:59:36.143Z,4.20
2023-01-20T11:02:17.305Z,4.10
2023-01-20T11:04:49.952Z,4.10
2023-01-20T11:07:19.738Z,4.20
2023-01-20T11:09:49.046Z,4.00
2023-01-20T11:12:31.136Z,4.20
2023-01-20T11:15:00.963Z,4.30
2023-01-20T11:17:35.483Z,4.20
2023-01-20T11:20:11.402Z,4.20
2023-01-20T11:22:49.429Z,4.20
2023-01-20T11:25:27.900Z,4.30
2023-01-20T11:28:40.922Z,4.50
2023-01-20T11:31:10.692Z,4.60
2023-01-20T11:33:38.070Z,4.70
2023-01-20T11:36:19.157Z,5.00
2023-01-20T11:38:52.089Z,5.10
2023-01-20T11:41:26.517Z,5.20
2023-01-20T11:44:11.610Z,5.20
2023-01-20T11:46:39.031Z,5.40
2023-01-20T11:49:19.265Z,5.40
2023-01-20T11:51:59.370Z,5.50
2023-01-20T11:54:30.742Z,5.60
2023-01-20T11:57:05.662Z,5.30
2023-01-20T11:59:36.807Z,5.20
2023-01-20T12:05:23.201Z,5.40
2023-01-20T12:07:53.817Z,5.30
2023-01-20T12:13:15.673Z,5.10
2023-01-20T12:18:13.108Z,5.20
2023-01-20T12:20:56.781Z,5.20
2023-01-20T12:23:58.836Z,5.00
2023-01-20T12:26:29.708Z,4.90
2023-01-20T12:29:18.791Z,4.70
2023-01-20T12:31:49.582Z,4.50
2023-01-20T12:37:12.612Z,4.30
2023-01-20T12:40:01.896Z,4.40
2023-01-20T12:45:47.343Z,4.30
2023-01-20T12:48:54.198Z,4.30
2023-01-20T12:51:37.816Z,4.30
2023-01-20T12:54:47.902Z,4.20
2023-01-20T12:57:28.036Z,4.10
2023-01-20T13:19:38.967Z,4.00
2023-01-20T13:22:20.746Z,4.10
2023-01-20T13:27:33.803Z,4.20
2023-01-20T13:30:04.602Z,4.30
2023-01-20T13:32:35.904Z,4.10
2023-01-20T13:35:22.799Z,4.20
2023-01-20T13:37:49.770Z,4.00
2023-01-20T13:40:39.753Z,3.90
2023-01-20T13:43:25.554Z,3.90
2023-01-20T13:49:13.223Z,3.70
2023-01-20T13:51:46.956Z,3.40
2023-01-20T14:04:48.969Z,3.10
2023-01-20T14:07:27.057Z,3.20
2023-01-20T14:12:29.372Z,3.20
2023-01-20T14:14:56.581Z,3.00
2023-01-20T14:17:27.144Z,3.20
2023-01-20T14:19:58.774Z,3.10
2023-01-20T14:22:28.752Z,3.00
2023-01-20T14:25:01.085Z,2.90
2023-01-20T14:30:21.606Z,2.70
2023-01-20T14:43:33.332Z,2.30
2023-01-20T14:46:00.985Z,2.40
2023-01-20T14:48:34.904Z,2.50
2023-01-20T14:51:04.771Z,2.60
2023-01-20T15:06:53.712Z,2.00
2023-01-20T15:09:34.888Z,1.90
2023-01-20T15:12:38.264Z,1.90
2023-01-20T15:15:25.252Z,1.90
2023-01-20T15:18:13.615Z,2.00
2023-01-20T15:20:48.065Z,2.00
2023-01-20T15:23:43.096Z,1.90
2023-01-20T15:26:24.354Z,1.80
2023-01-20T15:28:57.415Z,2.00
2023-01-20T15:31:27.886Z,1.90
2023-01-20T15:34:04.800Z,1.90
2023-01-20T15:36:43.307Z,1.60
2023-01-20T15:42:05.717Z,1.50
2023-01-20T15:47:18.701Z,1.40
2023-01-20T15:49:48.918Z,1.40
2023-01-20T15:52:19.355Z,1.40
2023-01-20T15:54:59.455Z,1.40
2023-01-20T15:57:33.508Z,1.50
2023-01-20T16:02:36.903Z,1.50
2023-01-20T16:07:48.717Z,1.40
2023-01-20T16:10:20.046Z,1.40
2023-01-20T16:12:47.991Z,1.40
2023-01-20T16:15:21.985Z,1.40
2023-01-20T16:20:40.524Z,1.20
2023-01-20T16:25:45.446Z,1.10
2023-01-20T16:28:20.906Z,1.10
2023-01-20T16:31:11.802Z,1.10
2023-01-20T16:33:42.511Z,1.10
2023-01-20T16:36:17.579Z,1.00
2023-01-20T16:57:39.114Z,1.10
2023-01-20T17:00:13.258Z,1.10
2023-01-20T17:02:41.516Z,1.00
2023-01-20T17:10:32.810Z,1.00
2023-01-20T17:13:00.144Z,0.90
2023-01-20T17:31:37.855Z,1.00
2023-01-20T17:39:27.592Z,1.10
2023-01-20T17:42:01.136Z,1.10
2023-01-20T17:44:30.811Z,1.00
2023-01-20T18:00:22.700Z,1.20
2023-01-20T18:05:37.608Z,1.30
2023-01-20T18:27:27.662Z,1.20
2023-01-20T18:54:15.717Z,1.10
2023-01-20T18:59:23.809Z,1.10
2023-01-20T19:09:53.585Z,1.00
2023-01-20T19:12:33.398Z,1.00
2023-01-20T19:15:01.589Z,1.00
2023-01-20T19:17:38.234Z,1.00
2023-01-20T19:20:20.157Z,0.90
2023-01-20T19:33:45.287Z,1.20
2023-01-20T19:41:35.051Z,0.90
2023-01-20T20:00:05.752Z,0.70
2023-01-20T20:02:35.198Z,0.80
2023-01-20T20:05:02.975Z,0.60
2023-01-20T20:07:32.495Z,0.60
2023-01-20T20:10:03.320Z,0.60
2023-01-20T20:12:31.629Z,0.60
2023-01-20T20:15:13.027Z,0.40
2023-01-20T20:17:48.007Z,0.50
2023-01-20T20:20:19.753Z,0.50
2023-01-20T20:22:50.851Z,0.50
2023-01-20T20:25:24.463Z,0.50
2023-01-20T20:27:54.685Z,0.50
2023-01-20T20:30:21.700Z,0.60
2023-01-20T20:32:51.436Z,0.50
2023-01-20T20:35:27.162Z,0.70
2023-01-20T20:37:54.820Z,0.50
2023-01-20T20:43:06.008Z,0.40
2023-01-20T20:48:19.954Z,0.50
2023-01-20T20:53:24.364Z,0.50
2023-01-20T20:58:32.126Z,0.40
2023-01-20T21:01:07.246Z,0.40
2023-01-20T21:06:38.923Z,0.40
2023-01-20T21:09:10.501Z,0.40
2023-01-20T21:17:12.934Z,0.20
2023-01-20T21:22:26.981Z,0.10
2023-01-20T21:25:02.062Z,0.40
2023-01-20T21:30:21.903Z,0.20
2023-01-20T21:32:52.136Z,0.20
2023-01-20T21:35:20.059Z,0.10
2023-01-20T21:40:34.793Z,0.00
2023-01-20T21:43:22.480Z,0.00
2023-01-20T21:45:57.620Z,-0.10
2023-01-20T21:48:43.727Z,-0.10
2023-01-20T21:51:29.545Z,-0.20
2023-01-20T21:53:58.653Z,-0.30
2023-01-20T21:56:26.275Z,-0.40
2023-01-20T21:58:56.825Z,-0.40
2023-01-20T22:01:25.556Z,-0.50
2023-01-20T22:03:58.959Z,-0.50
2023-01-20T22:06:26.119Z,-0.70
2023-01-20T22:11:35.067Z,-0.70
2023-01-20T22:14:04.059Z,-0.60
2023-01-20T22:16:33.055Z,-0.70
2023-01-20T22:19:00.919Z,-0.70
2023-01-20T22:21:28.741Z,-0.70
2023-01-20T22:23:58.310Z,-0.70
2023-01-20T22:26:26.104Z,-0.70
2023-01-20T22:28:53.375Z,-0.50
2023-01-20T22:31:24.991Z,-0.80
2023-01-20T22:34:09.884Z,-0.60
2023-01-20T22:36:37.378Z,-0.60
2023-01-20T22:39:07.285Z,-0.70
2023-01-20T22:41:36.501Z,-0.60
2023-01-20T22:44:05.718Z,-0.60
2023-01-20T22:46:34.637Z,-0.60
2023-01-20T22:49:02.636Z,-0.60
2023-01-20T22:51:32.741Z,-0.60
2023-01-20T22:54:01.551Z,-0.50
2023-01-20T22:56:32.591Z,-0.50
2023-01-20T22:59:07.933Z,-0.40
2023-01-20T23:01:38.814Z,-0.50
2023-01-20T23:04:15.823Z,-0.50
2023-01-20T23:06:46.239Z,-0.50
2023-01-20T23:09:14.659Z,-0.50
2023-01-20T23:11:42.675Z,-0.50
2023-01-20T23:14:13.858Z,-0.50
2023-01-20T23:16:46.327Z,-0.50
2023-01-20T23:19:13.839Z,-0.50
2023-01-20T23:21:42.489Z,-0.50
2023-01-20T23:24:10.244Z,-0.50
2023-01-20T23:26:39.431Z,-0.50
2023-01-20T23:29:09.936Z,-0.40
2023-01-20T23:31:36.789Z,-0.50
2023-01-20T23:34:05.370Z,-0.50
2023-01-20T23:36:34.906Z,-0.40
2023-01-20T23:39:03.734Z,-0.40
2023-01-20T23:41:33.909Z,-0.40
2023-01-20T23:44:02.323Z,-0.40
2023-01-20T23:46:29.228Z,-0.40
2023-01-20T23:49:22.894Z,-0.40
2023-01-20T23:51:57.855Z,-0.40
2023-01-20T23:54:36.403Z,-0.40
2023-01-20T23:57:05.154Z,-0.40
2023-01-20T23:59:32.736Z,-0.40
